createdAt,value
2019-02-03T00:01:58.001Z,17.20
2019-02-03T00:04:27.277Z,16.27
2019-02-03T00:07:03.399Z,16.33
2019-02-03T00:09:27.113Z,14.37
2019-02-03T00:11:56.165Z,14.93
2019-02-03T00:14:25.244Z,13.43
2019-02-03T00:16:54.314Z,14.03
2019-02-03T00:19:23.335Z,13.53
2019-02-03T00:21:52.335Z,15.57
2019-02-03T00:24:21.346Z,14.13
2019-02-03T00:26:50.336Z,12.53
2019-02-03T00:29:19.411Z,12.10
2019-02-03T00:31:48.620Z,12.50
2019-02-03T00:34:17.659Z,11.70
2019-02-03T00:36:46.720Z,11.43
2019-02-03T00:39:15.953Z,13.30
2019-02-03T00:41:45.023Z,12.60
2019-02-03T00:44:14.015Z,11.90
2019-02-03T00:46:43.033Z,10.90
2019-02-03T00:49:12.114Z,11.67
2019-02-03T00:51:41.175Z,12.33
2019-02-03T00:54:10.240Z,10.93
2019-02-03T00:56:39.286Z,13.57
2019-02-03T00:59:08.367Z,12.50
2019-02-03T01:01:37.625Z,11.13
2019-02-03T01:04:06.760Z,10.80
2019-02-03T01:06:35.802Z,11.47
2019-02-03T01:09:06.927Z,10.50
2019-02-03T01:11:36.419Z,11.47
2019-02-03T01:14:05.450Z,10.97
2019-02-03T01:16:34.630Z,11.00
2019-02-03T01:19:03.691Z,11.57
2019-02-03T01:21:32.714Z,8.73
2019-02-03T01:24:01.838Z,10.37
2019-02-03T01:26:31.097Z,10.27
2019-02-03T01:29:00.123Z,9.80
2019-02-03T01:31:29.319Z,10.03
2019-02-03T01:33:58.414Z,10.50
2019-02-03T01:36:27.519Z,9.33
2019-02-03T01:38:56.595Z,9.90
2019-02-03T01:41:25.601Z,9.70
2019-02-03T01:43:54.683Z,11.43
2019-02-03T01:46:23.821Z,12.27
2019-02-03T01:48:52.967Z,14.50
2019-02-03T01:51:22.045Z,8.83
2019-02-03T01:53:51.470Z,9.03
2019-02-03T01:56:20.548Z,9.47
2019-02-03T01:58:49.592Z,8.70
2019-02-03T02:01:18.667Z,9.10
2019-02-03T02:03:47.893Z,9.73
2019-02-03T02:06:16.994Z,9.50
2019-02-03T02:08:46.127Z,10.40
2019-02-03T02:11:15.148Z,8.43
2019-02-03T02:13:44.335Z,8.50
2019-02-03T02:16:13.344Z,8.80
2019-02-03T02:18:42.475Z,8.70
2019-02-03T02:21:11.712Z,8.10
2019-02-03T02:23:40.727Z,7.73
2019-02-03T02:26:09.831Z,9.27
2019-02-03T02:28:38.955Z,7.70
2019-02-03T02:31:08.003Z,9.10
2019-02-03T02:33:37.000Z,9.63
2019-02-03T02:36:06.320Z,8.47
2019-02-03T02:38:35.464Z,8.87
2019-02-03T02:41:04.699Z,9.30
2019-02-03T02:43:33.876Z,9.73
2019-02-03T02:46:02.925Z,9.17
2019-02-03T02:48:32.079Z,8.57
2019-02-03T02:51:01.082Z,9.03
2019-02-03T02:53:30.183Z,8.70
2019-02-03T02:55:59.274Z,9.13
2019-02-03T02:58:28.255Z,9.43
2019-02-03T03:00:57.352Z,8.50
2019-02-03T03:03:26.335Z,8.33
2019-02-03T03:05:55.475Z,8.57
2019-02-03T03:08:24.481Z,8.43
2019-02-03T03:10:53.556Z,9.20
2019-02-03T03:13:22.580Z,8.90
2019-02-03T03:15:51.590Z,9.00
2019-02-03T03:18:21.835Z,8.93
2019-02-03T03:20:50.912Z,9.27
2019-02-03T03:23:19.887Z,9.20
2019-02-03T03:25:49.022Z,9.60
2019-02-03T03:28:18.003Z,9.97
2019-02-03T03:30:47.027Z,10.10
2019-02-03T03:33:16.135Z,9.33
2019-02-03T03:35:45.167Z,10.03
2019-02-03T03:38:14.232Z,9.73
2019-02-03T03:40:43.223Z,10.90
2019-02-03T03:43:12.203Z,10.20
2019-02-03T03:45:41.568Z,9.73
2019-02-03T03:48:10.547Z,9.87
2019-02-03T03:50:39.579Z,9.93
2019-02-03T03:53:08.586Z,11.00
2019-02-03T03:55:37.595Z,10.80
2019-02-03T03:58:06.570Z,10.50
2019-02-03T04:00:35.927Z,12.07
2019-02-03T04:03:05.042Z,11.87
2019-02-03T04:05:34.062Z,11.83
2019-02-03T04:08:03.245Z,13.00
2019-02-03T04:10:32.470Z,12.37
2019-02-03T04:13:01.470Z,13.30
2019-02-03T04:15:30.713Z,14.13
2019-02-03T04:17:59.820Z,14.67
2019-02-03T04:20:29.836Z,14.17
2019-02-03T04:22:58.836Z,14.87
2019-02-03T04:25:27.824Z,15.97
2019-02-03T04:27:57.288Z,14.97
2019-02-03T04:30:26.430Z,16.33
2019-02-03T04:32:55.477Z,18.60
2019-02-03T04:35:24.675Z,17.33
2019-02-03T04:37:53.697Z,18.27
2019-02-03T04:40:22.725Z,18.83
2019-02-03T04:42:51.801Z,19.27
2019-02-03T04:45:22.762Z,19.13
2019-02-03T04:47:51.556Z,18.47
2019-02-03T04:50:20.888Z,18.67
2019-02-03T04:52:50.156Z,19.67
2019-02-03T04:55:19.609Z,19.73
2019-02-03T04:57:48.750Z,19.37
2019-02-03T05:00:18.798Z,19.13
2019-02-03T05:02:47.813Z,19.37
2019-02-03T05:05:16.952Z,19.00
2019-02-03T05:07:45.960Z,20.83
2019-02-03T05:10:16.549Z,20.33
2019-02-03T05:12:45.638Z,22.07
2019-02-03T05:15:15.730Z,20.87
2019-02-03T05:17:44.928Z,21.73
2019-02-03T05:20:14.610Z,21.00
2019-02-03T05:22:44.039Z,20.63
2019-02-03T05:25:13.139Z,19.93
2019-02-03T05:27:42.146Z,20.23
2019-02-03T05:30:12.970Z,20.30
2019-02-03T05:32:41.977Z,19.93
2019-02-03T05:35:11.037Z,21.07
2019-02-03T05:37:40.204Z,21.73
2019-02-03T05:40:09.557Z,21.27
2019-02-03T05:42:38.548Z,21.50
2019-02-03T05:45:08.732Z,20.07
2019-02-03T05:47:37.812Z,20.90
2019-02-03T05:50:07.371Z,20.43
2019-02-03T05:52:36.446Z,21.07
2019-02-03T05:55:05.728Z,21.13
2019-02-03T05:57:34.731Z,20.67
2019-02-03T06:00:04.258Z,20.87
2019-02-03T06:02:33.294Z,20.37
2019-02-03T06:05:02.554Z,21.10
2019-02-03T06:07:31.548Z,20.87
2019-02-03T06:10:00.539Z,19.73
2019-02-03T06:12:29.528Z,20.30
2019-02-03T06:14:58.515Z,18.63
2019-02-03T06:17:27.608Z,19.07
2019-02-03T06:19:56.586Z,19.93
2019-02-03T06:22:25.605Z,19.73
2019-02-03T06:24:54.575Z,20.30
2019-02-03T06:27:23.611Z,18.70
2019-02-03T06:29:52.603Z,20.87
2019-02-03T06:32:22.022Z,19.77
2019-02-03T06:34:51.149Z,19.50
2019-02-03T06:37:20.173Z,18.83
2019-02-03T06:39:49.235Z,21.20
2019-02-03T06:42:19.622Z,19.90
2019-02-03T06:44:48.696Z,19.50
2019-02-03T06:47:27.132Z,19.47
2019-02-03T06:49:56.133Z,20.53
2019-02-03T06:52:26.651Z,19.80
2019-02-03T06:54:55.644Z,20.30
2019-02-03T06:57:24.658Z,20.67
2019-02-03T06:59:53.697Z,19.67
2019-02-03T07:02:22.663Z,19.00
2019-02-03T07:04:51.680Z,21.07
2019-02-03T07:07:20.671Z,18.10
2019-02-03T07:10:00.097Z,19.23
2019-02-03T07:12:20.576Z,20.37
2019-02-03T07:14:49.750Z,19.00
2019-02-03T07:17:18.766Z,20.40
2019-02-03T07:19:47.768Z,17.50
2019-02-03T07:22:16.758Z,18.17
2019-02-03T07:24:45.757Z,17.83
2019-02-03T07:27:14.962Z,17.40
2019-02-03T07:29:44.117Z,17.47
2019-02-03T07:32:13.110Z,17.07
2019-02-03T07:34:43.629Z,17.27
2019-02-03T07:37:12.660Z,18.20
2019-02-03T07:39:42.064Z,17.60
2019-02-03T07:42:11.139Z,16.37
2019-02-03T07:44:40.152Z,17.37
2019-02-03T07:47:09.265Z,17.63
2019-02-03T07:49:38.400Z,17.50
2019-02-03T07:52:07.424Z,17.60
2019-02-03T07:54:36.762Z,17.07
2019-02-03T07:57:05.890Z,15.50
2019-02-03T07:59:34.883Z,15.97
2019-02-03T08:02:03.920Z,15.63
2019-02-03T08:04:33.083Z,15.80
2019-02-03T08:07:02.217Z,15.23
2019-02-03T08:09:31.624Z,16.67
2019-02-03T08:12:00.693Z,14.50
2019-02-03T08:14:29.839Z,14.63
2019-02-03T08:16:58.944Z,15.33
2019-02-03T08:19:28.100Z,14.77
2019-02-03T08:21:57.223Z,15.40
2019-02-03T08:24:26.296Z,14.30
2019-02-03T08:26:55.424Z,14.60
2019-02-03T08:29:24.515Z,15.53
2019-02-03T08:31:53.492Z,15.90
2019-02-03T08:34:22.581Z,14.40
2019-02-03T08:36:51.714Z,14.20
2019-02-03T08:39:21.081Z,13.43
2019-02-03T08:41:50.089Z,15.63
2019-02-03T08:44:19.156Z,15.57
2019-02-03T08:46:49.788Z,16.77
2019-02-03T08:49:18.863Z,13.90
2019-02-03T08:51:48.193Z,13.30
2019-02-03T08:54:17.194Z,13.73
2019-02-03T08:56:46.254Z,14.57
2019-02-03T08:59:15.359Z,14.00
2019-02-03T09:01:44.456Z,13.67
2019-02-03T09:04:13.432Z,13.87
2019-02-03T09:06:42.454Z,13.00
2019-02-03T09:09:11.679Z,11.93
2019-02-03T09:11:40.706Z,11.97
2019-02-03T09:14:09.775Z,13.27
2019-02-03T09:16:38.972Z,12.77
2019-02-03T09:19:08.047Z,13.30
2019-02-03T09:21:37.207Z,13.70
2019-02-03T09:24:06.339Z,12.73
2019-02-03T09:26:35.586Z,13.57
2019-02-03T09:29:04.889Z,13.90
2019-02-03T09:31:34.109Z,13.33
2019-02-03T09:34:03.451Z,14.73
2019-02-03T09:36:32.469Z,13.80
2019-02-03T09:39:01.494Z,13.80
2019-02-03T09:41:30.498Z,14.37
2019-02-03T09:43:59.518Z,14.20
2019-02-03T09:46:28.717Z,15.30
2019-02-03T09:48:59.008Z,14.57
2019-02-03T09:51:28.125Z,15.27
2019-02-03T09:53:57.111Z,14.83
2019-02-03T09:56:26.262Z,14.43
2019-02-03T09:58:55.247Z,14.83
2019-02-03T10:01:24.397Z,16.27
2019-02-03T10:03:53.379Z,16.60
2019-02-03T10:06:22.542Z,15.00
2019-02-03T10:08:51.682Z,14.87
2019-02-03T10:11:22.796Z,15.97
2019-02-03T10:13:51.401Z,16.33
2019-02-03T10:16:20.430Z,15.80
2019-02-03T10:18:49.442Z,15.40
2019-02-03T10:21:18.576Z,14.60
2019-02-03T10:23:47.571Z,15.73
2019-02-03T10:26:16.588Z,15.73
2019-02-03T10:28:46.706Z,15.97
2019-02-03T10:31:16.008Z,15.23
2019-02-03T10:33:44.999Z,14.53
2019-02-03T10:36:14.038Z,16.77
2019-02-03T10:38:43.082Z,14.97
2019-02-03T10:41:23.484Z,15.57
2019-02-03T10:43:42.844Z,16.37
2019-02-03T10:46:11.863Z,16.67
2019-02-03T10:48:40.865Z,17.20
2019-02-03T10:51:09.878Z,16.70
2019-02-03T10:53:38.885Z,18.17
2019-02-03T10:56:07.910Z,16.83
2019-02-03T10:58:36.905Z,21.97
2019-02-03T11:01:06.140Z,24.17
2019-02-03T11:03:35.233Z,27.43
2019-02-03T11:06:04.321Z,23.23
2019-02-03T11:08:33.404Z,28.07
2019-02-03T11:11:02.485Z,21.87
2019-02-03T11:13:31.563Z,22.10
2019-02-03T11:16:00.915Z,21.80
2019-02-03T11:18:30.015Z,24.07
2019-02-03T11:20:59.014Z,20.10
2019-02-03T11:23:28.175Z,18.33
2019-02-03T11:26:00.064Z,18.00
2019-02-03T11:28:28.158Z,18.27
2019-02-03T11:30:57.603Z,16.60
2019-02-03T11:33:26.657Z,16.70
2019-02-03T11:35:55.800Z,16.80
2019-02-03T11:38:24.883Z,17.37
2019-02-03T11:40:53.962Z,20.03
2019-02-03T11:43:23.109Z,18.17
2019-02-03T11:45:52.174Z,18.17
2019-02-03T11:48:21.843Z,16.40
2019-02-03T11:50:51.315Z,16.57
2019-02-03T11:53:21.968Z,16.77
2019-02-03T11:55:53.699Z,17.57
2019-02-03T11:58:21.785Z,16.47
2019-02-03T12:00:51.012Z,17.73
2019-02-03T12:03:20.102Z,17.50
2019-02-03T12:05:49.174Z,16.93
2019-02-03T12:08:18.413Z,16.77
2019-02-03T12:10:47.424Z,17.90
2019-02-03T12:13:16.835Z,17.50
2019-02-03T12:15:48.102Z,17.60
2019-02-03T12:18:18.316Z,17.10
2019-02-03T12:20:47.359Z,16.97
2019-02-03T12:23:16.393Z,16.27
2019-02-03T12:25:45.620Z,16.63
2019-02-03T12:28:14.656Z,16.53
2019-02-03T12:30:43.738Z,17.17
2019-02-03T12:33:12.878Z,17.67
2019-02-03T12:35:41.871Z,17.90
2019-02-03T12:38:10.879Z,17.53
2019-02-03T12:40:40.267Z,18.13
2019-02-03T12:43:09.413Z,16.63
2019-02-03T12:45:38.484Z,17.57
2019-02-03T12:48:07.884Z,16.87
2019-02-03T12:50:37.161Z,17.40
2019-02-03T12:53:06.261Z,17.17
2019-02-03T12:55:35.287Z,17.93
2019-02-03T12:58:04.936Z,16.73
2019-02-03T13:00:34.091Z,16.37
2019-02-03T13:03:03.165Z,15.63
2019-02-03T13:05:32.215Z,18.17
2019-02-03T13:08:01.623Z,16.30
2019-02-03T13:10:31.513Z,17.50
2019-02-03T13:13:00.761Z,15.13
2019-02-03T13:15:34.183Z,15.80
2019-02-03T13:18:03.209Z,16.83
2019-02-03T13:20:32.243Z,15.30
2019-02-03T13:23:02.052Z,15.33
2019-02-03T13:25:31.071Z,14.93
2019-02-03T13:28:00.080Z,15.47
2019-02-03T13:30:33.271Z,15.43
2019-02-03T13:33:02.412Z,16.17
2019-02-03T13:35:31.501Z,15.20
2019-02-03T13:38:00.580Z,16.13
2019-02-03T13:40:29.677Z,15.03
2019-02-03T13:42:58.655Z,15.63
2019-02-03T13:45:27.776Z,15.17
2019-02-03T13:47:57.248Z,14.30
2019-02-03T13:50:26.383Z,14.50
2019-02-03T13:52:55.616Z,14.27
2019-02-03T13:55:24.735Z,14.07
2019-02-03T13:57:53.747Z,12.97
2019-02-03T14:00:23.808Z,13.27
2019-02-03T14:02:52.798Z,12.27
2019-02-03T14:05:21.978Z,12.57
2019-02-03T14:07:50.962Z,12.57
2019-02-03T14:10:24.012Z,11.60
2019-02-03T14:12:55.053Z,10.77
2019-02-03T14:15:23.738Z,10.37
2019-02-03T14:17:52.770Z,10.60
2019-02-03T14:20:22.829Z,10.23
2019-02-03T14:22:51.912Z,13.40
2019-02-03T14:25:21.140Z,10.43
2019-02-03T14:27:50.614Z,11.97
2019-02-03T14:30:23.857Z,12.27
2019-02-03T14:32:52.872Z,11.17
2019-02-03T14:35:21.954Z,11.90
2019-02-03T14:37:50.999Z,11.03
2019-02-03T14:40:20.629Z,11.53
2019-02-03T14:43:00.832Z,12.30
2019-02-03T14:45:21.525Z,10.90
2019-02-03T14:47:50.631Z,9.30
2019-02-03T14:50:20.191Z,10.17
2019-02-03T14:52:49.502Z,9.93
2019-02-03T14:55:19.397Z,8.50
2019-02-03T14:57:48.522Z,8.93
2019-02-03T15:00:19.503Z,8.20
2019-02-03T15:02:48.590Z,9.03
2019-02-03T15:05:20.063Z,7.63
2019-02-03T15:07:48.367Z,7.60
2019-02-03T15:10:17.384Z,7.67
2019-02-03T15:12:46.447Z,7.57
2019-02-03T15:15:18.113Z,7.20
2019-02-03T15:17:47.298Z,9.00
2019-02-03T15:20:17.619Z,8.45
2019-02-03T15:22:46.599Z,7.23
2019-02-03T15:25:15.709Z,6.60
2019-02-03T15:27:44.721Z,6.93
2019-02-03T15:30:19.853Z,6.53
2019-02-03T15:32:46.225Z,6.80
2019-02-03T15:35:15.425Z,7.97
2019-02-03T15:37:44.413Z,6.97
2019-02-03T15:40:14.188Z,6.20
2019-02-03T15:42:45.957Z,6.50
2019-02-03T15:45:15.976Z,8.10
2019-02-03T15:47:45.067Z,6.37
2019-02-03T15:50:18.125Z,6.70
2019-02-03T15:52:47.151Z,6.77
2019-02-03T15:55:19.862Z,6.00
2019-02-03T15:57:49.263Z,6.40
2019-02-03T16:00:19.466Z,6.20
2019-02-03T16:02:48.516Z,6.00
2019-02-03T16:05:17.519Z,5.33
2019-02-03T16:07:46.563Z,13.10
2019-02-03T16:10:16.544Z,20.47
2019-02-03T16:12:45.920Z,18.57
2019-02-03T16:15:15.007Z,13.97
2019-02-03T16:17:44.142Z,22.70
2019-02-03T16:20:14.880Z,20.47
2019-02-03T16:22:44.186Z,10.03
2019-02-03T16:25:13.630Z,6.13
2019-02-03T16:27:42.649Z,4.90
2019-02-03T16:30:13.074Z,6.33
2019-02-03T16:32:42.155Z,5.30
2019-02-03T16:35:14.668Z,6.40
2019-02-03T16:37:43.701Z,5.07
2019-02-03T16:40:14.163Z,4.73
2019-02-03T16:42:43.180Z,4.60
2019-02-03T16:45:12.578Z,4.70
2019-02-03T16:47:41.830Z,4.47
2019-02-03T16:50:12.698Z,5.57
2019-02-03T16:52:41.779Z,4.40
2019-02-03T16:55:10.904Z,4.57
2019-02-03T16:57:39.989Z,4.83
2019-02-03T17:00:09.651Z,4.80
2019-02-03T17:02:38.780Z,5.97
2019-02-03T17:05:08.944Z,4.00
2019-02-03T17:07:38.319Z,5.10
2019-02-03T17:10:08.347Z,4.70
2019-02-03T17:12:37.528Z,5.40
2019-02-03T17:15:08.673Z,5.33
2019-02-03T17:17:37.812Z,4.40
2019-02-03T17:20:06.972Z,4.33
2019-02-03T17:22:36.403Z,4.80
2019-02-03T17:25:06.043Z,4.37
2019-02-03T17:27:35.071Z,4.33
2019-02-03T17:30:04.688Z,4.30
2019-02-03T17:32:33.808Z,4.50
2019-02-03T17:35:03.634Z,5.07
2019-02-03T17:37:32.775Z,4.30
2019-02-03T17:40:01.791Z,5.03
2019-02-03T17:42:30.894Z,4.10
2019-02-03T17:44:59.972Z,4.03
2019-02-03T17:47:29.005Z,5.20
2019-02-03T17:49:58.452Z,3.80
2019-02-03T17:52:38.320Z,3.73
2019-02-03T17:54:59.111Z,3.40
2019-02-03T17:57:28.196Z,5.20
2019-02-03T17:59:57.259Z,16.50
2019-02-03T18:02:26.288Z,18.23
2019-02-03T18:04:55.400Z,8.67
2019-02-03T18:07:24.528Z,4.90
2019-02-03T18:09:56.451Z,4.00
2019-02-03T18:12:24.420Z,4.43
2019-02-03T18:14:54.505Z,4.60
2019-02-03T18:17:24.083Z,4.30
2019-02-03T18:19:53.111Z,5.60
2019-02-03T18:22:22.207Z,5.77
2019-02-03T18:24:51.231Z,4.33
2019-02-03T18:27:20.294Z,5.17
2019-02-03T18:29:49.449Z,4.20
2019-02-03T18:32:18.816Z,4.97
2019-02-03T18:34:47.872Z,4.73
2019-02-03T18:37:19.342Z,5.20
2019-02-03T18:39:47.781Z,4.90
2019-02-03T18:42:16.945Z,7.10
2019-02-03T18:44:45.954Z,8.30
2019-02-03T18:47:14.994Z,7.60
2019-02-03T18:49:44.164Z,7.87
2019-02-03T18:52:13.259Z,6.67
2019-02-03T18:54:42.383Z,8.37
2019-02-03T18:57:11.454Z,6.20
2019-02-03T18:59:40.873Z,6.20
2019-02-03T19:02:11.342Z,6.90
2019-02-03T19:04:40.356Z,7.03
2019-02-03T19:07:09.508Z,7.10
2019-02-03T19:09:38.580Z,6.37
2019-02-03T19:12:07.568Z,6.23
2019-02-03T19:14:46.589Z,6.30
2019-02-03T19:17:07.529Z,6.10
2019-02-03T19:19:36.543Z,8.93
2019-02-03T19:22:05.525Z,7.47
2019-02-03T19:24:34.645Z,7.70
2019-02-03T19:27:03.858Z,9.10
2019-02-03T19:29:32.868Z,9.27
2019-02-03T19:32:01.841Z,7.63
2019-02-03T19:34:31.079Z,6.97
2019-02-03T19:37:05.701Z,7.00
2019-02-03T19:39:30.975Z,6.47
2019-02-03T19:42:00.293Z,6.97
2019-02-03T19:44:29.416Z,7.70
2019-02-03T19:46:58.410Z,6.53
2019-02-03T19:49:27.435Z,7.53
2019-02-03T19:51:56.453Z,7.23
2019-02-03T19:54:25.572Z,5.63
2019-02-03T19:56:54.803Z,6.47
2019-02-03T19:59:23.807Z,5.60
2019-02-03T20:01:52.856Z,5.93
2019-02-03T20:04:21.875Z,7.83
2019-02-03T20:06:50.893Z,6.83
2019-02-03T20:09:19.926Z,6.10
2019-02-03T20:11:49.166Z,5.40
2019-02-03T20:14:18.349Z,5.07
2019-02-03T20:16:49.383Z,6.07
2019-02-03T20:19:18.469Z,5.60
2019-02-03T20:21:47.459Z,7.47
2019-02-03T20:24:16.905Z,6.33
2019-02-03T20:26:45.868Z,6.53
2019-02-03T20:29:15.388Z,6.20
2019-02-03T20:31:44.557Z,6.23
2019-02-03T20:34:13.698Z,6.80
2019-02-03T20:36:42.856Z,6.33
2019-02-03T20:39:12.201Z,6.40
2019-02-03T20:41:41.191Z,6.43
2019-02-03T20:44:10.203Z,6.47
2019-02-03T20:46:39.242Z,7.03
2019-02-03T20:49:08.433Z,8.23
2019-02-03T20:51:37.572Z,7.47
2019-02-03T20:54:07.058Z,7.30
2019-02-03T20:56:36.100Z,7.10
2019-02-03T20:59:05.197Z,7.60
2019-02-03T21:01:34.222Z,7.17
2019-02-03T21:04:05.235Z,6.83
2019-02-03T21:06:34.053Z,6.20
2019-02-03T21:09:03.223Z,6.80
2019-02-03T21:11:32.247Z,8.20
2019-02-03T21:14:01.354Z,7.33
2019-02-03T21:16:30.417Z,6.17
2019-02-03T21:18:59.440Z,7.23
2019-02-03T21:21:28.454Z,7.37
2019-02-03T21:23:57.617Z,6.57
2019-02-03T21:26:26.726Z,6.93
2019-02-03T21:28:55.817Z,8.13
2019-02-03T21:31:24.885Z,8.03
2019-02-03T21:33:54.215Z,8.40
2019-02-03T21:36:23.311Z,8.20
2019-02-03T21:38:52.304Z,7.87
2019-02-03T21:41:21.618Z,8.10
2019-02-03T21:43:53.646Z,7.97
2019-02-03T21:46:22.774Z,8.07
2019-02-03T21:48:51.864Z,8.80
2019-02-03T21:51:21.065Z,6.57
2019-02-03T21:53:50.128Z,7.17
2019-02-03T21:56:23.555Z,7.97
2019-02-03T21:58:54.856Z,7.37
2019-02-03T22:01:25.058Z,7.70
2019-02-03T22:03:55.245Z,7.63
2019-02-03T22:06:29.211Z,8.67
2019-02-03T22:08:59.446Z,8.47
2019-02-03T22:11:29.653Z,7.93
2019-02-03T22:13:59.252Z,8.70
2019-02-03T22:16:28.992Z,8.30
2019-02-03T22:18:58.549Z,10.90
2019-02-03T22:21:28.727Z,7.00
2019-02-03T22:23:58.266Z,9.07
2019-02-03T22:26:28.068Z,8.17
2019-02-03T22:28:59.802Z,7.63
2019-02-03T22:31:29.440Z,7.50
2019-02-03T22:33:59.265Z,7.00
2019-02-03T22:36:28.944Z,6.90
2019-02-03T22:38:58.813Z,7.87
2019-02-03T22:41:29.153Z,7.00
2019-02-03T22:43:58.775Z,8.30
2019-02-03T22:46:28.427Z,8.27
2019-02-03T22:48:58.071Z,10.67
2019-02-03T22:51:27.675Z,6.37
2019-02-03T22:53:57.218Z,6.40
2019-02-03T22:56:27.069Z,6.77
2019-02-03T22:58:58.450Z,6.67
2019-02-03T23:01:39.235Z,7.33
2019-02-03T23:04:13.213Z,7.70
2019-02-03T23:06:43.260Z,8.00
2019-02-03T23:09:36.199Z,14.53
2019-02-03T23:12:08.378Z,8.07
2019-02-03T23:14:37.380Z,9.33
2019-02-03T23:17:06.640Z,7.50
2019-02-03T23:19:35.668Z,7.47
2019-02-03T23:22:04.684Z,7.60
2019-02-03T23:24:33.688Z,5.90
2019-02-03T23:27:02.774Z,6.17
2019-02-03T23:29:32.255Z,13.57
2019-02-03T23:32:01.359Z,16.97
2019-02-03T23:34:31.405Z,17.70
2019-02-03T23:37:00.424Z,8.80
2019-02-03T23:39:29.507Z,9.53
2019-02-03T23:41:58.538Z,9.20
2019-02-03T23:44:27.681Z,6.77
2019-02-03T23:46:56.756Z,7.03
2019-02-03T23:49:25.792Z,8.97
2019-02-03T23:51:54.900Z,7.80
2019-02-03T23:54:23.960Z,5.97
2019-02-03T23:56:53.106Z,6.77
2019-02-03T23:59:22.333Z,7.20
